sensor_id;sensor_type;location;lat;lon;timestamp;temperature;humidity
11532;DHT22;5822;51.000;5.874;2022-10-16T00:01:46;16.00;99.90
11532;DHT22;5822;51.000;5.874;2022-10-16T00:04:12;16.00;99.90
11532;DHT22;5822;51.000;5.874;2022-10-16T00:06:38;16.00;99.90
11532;DHT22;5822;51.000;5.874;2022-10-16T00:09:04;16.00;99.90
11532;DHT22;5822;51.000;5.874;2022-10-16T00:11:34;16.00;99.90
11532;DHT22;5822;51.000;5.874;2022-10-16T00:14:04;16.00;99.90
11532;DHT22;5822;51.000;5.874;2022-10-16T00:16:30;16.00;99.90
11532;DHT22;5822;51.000;5.874;2022-10-16T00:18:56;16.00;99.90
11532;DHT22;5822;51.000;5.874;2022-10-16T00:21:24;16.00;99.90
11532;DHT22;5822;51.000;5.874;2022-10-16T00:23:54;16.00;99.90
11532;DHT22;5822;51.000;5.874;2022-10-16T00:26:20;16.00;99.90
11532;DHT22;5822;51.000;5.874;2022-10-16T00:28:50;16.00;99.90
11532;DHT22;5822;51.000;5.874;2022-10-16T00:31:17;15.90;99.90
11532;DHT22;5822;51.000;5.874;2022-10-16T00:33:43;15.90;99.90
11532;DHT22;5822;51.000;5.874;2022-10-16T00:36:12;15.90;99.90
11532;DHT22;5822;51.000;5.874;2022-10-16T00:38:38;15.90;99.90
11532;DHT22;5822;51.000;5.874;2022-10-16T00:41:05;15.90;99.90
11532;DHT22;5822;51.000;5.874;2022-10-16T00:43:37;15.90;99.90
11532;DHT22;5822;51.000;5.874;2022-10-16T00:46:10;15.80;99.90
11532;DHT22;5822;51.000;5.874;2022-10-16T00:48:38;15.90;99.90
11532;DHT22;5822;51.000;5.874;2022-10-16T00:51:05;15.90;99.90
11532;DHT22;5822;51.000;5.874;2022-10-16T00:53:32;15.90;99.90
11532;DHT22;5822;51.000;5.874;2022-10-16T00:55:58;15.80;99.90
11532;DHT22;5822;51.000;5.874;2022-10-16T00:58:23;15.80;99.90
11532;DHT22;5822;51.000;5.874;2022-10-16T01:00:49;15.80;99.90
11532;DHT22;5822;51.000;5.874;2022-10-16T01:03:26;15.80;99.90
11532;DHT22;5822;51.000;5.874;2022-10-16T01:06:08;15.80;99.90
11532;DHT22;5822;51.000;5.874;2022-10-16T01:09:04;15.90;99.90
11532;DHT22;5822;51.000;5.874;2022-10-16T01:11:49;15.90;99.90
11532;DHT22;5822;51.000;5.874;2022-10-16T01:14:47;15.80;99.90
11532;DHT22;5822;51.000;5.874;2022-10-16T01:17:50;15.80;99.90
11532;DHT22;5822;51.000;5.874;2022-10-16T01:28:15;15.70;99.90
11532;DHT22;5822;51.000;5.874;2022-10-16T01:30:44;15.70;99.90
11532;DHT22;5822;51.000;5.874;2022-10-16T01:33:17;15.70;99.90
11532;DHT22;5822;51.000;5.874;2022-10-16T01:35:46;15.70;99.90
11532;DHT22;5822;51.000;5.874;2022-10-16T01:38:22;15.70;99.90
11532;DHT22;5822;51.000;5.874;2022-10-16T01:40:56;15.70;99.90
11532;DHT22;5822;51.000;5.874;2022-10-16T01:43:48;15.70;99.90
11532;DHT22;5822;51.000;5.874;2022-10-16T01:46:17;15.70;99.90
11532;DHT22;5822;51.000;5.874;2022-10-16T01:48:44;15.70;99.90
11532;DHT22;5822;51.000;5.874;2022-10-16T01:51:12;15.70;99.90
11532;DHT22;5822;51.000;5.874;2022-10-16T01:53:40;15.70;99.90
11532;DHT22;5822;51.000;5.874;2022-10-16T01:56:10;15.60;99.90
11532;DHT22;5822;51.000;5.874;2022-10-16T01:58:45;15.70;99.90
11532;DHT22;5822;51.000;5.874;2022-10-16T02:01:14;15.70;99.90
11532;DHT22;5822;51.000;5.874;2022-10-16T02:03:43;15.70;99.90
11532;DHT22;5822;51.000;5.874;2022-10-16T02:06:10;15.70;99.90
11532;DHT22;5822;51.000;5.874;2022-10-16T02:08:36;15.70;99.90
11532;DHT22;5822;51.000;5.874;2022-10-16T02:11:02;15.70;99.90
11532;DHT22;5822;51.000;5.874;2022-10-16T02:13:39;15.60;99.90
11532;DHT22;5822;51.000;5.874;2022-10-16T02:16:08;15.60;99.90
11532;DHT22;5822;51.000;5.874;2022-10-16T02:18:34;15.60;99.90
11532;DHT22;5822;51.000;5.874;2022-10-16T02:21:54;15.60;99.90
11532;DHT22;5822;51.000;5.874;2022-10-16T02:24:03;15.60;99.90
11532;DHT22;5822;51.000;5.874;2022-10-16T02:29:03;15.60;99.90
11532;DHT22;5822;51.000;5.874;2022-10-16T02:31:34;15.60;99.90
11532;DHT22;5822;51.000;5.874;2022-10-16T02:34:02;15.60;99.90
11532;DHT22;5822;51.000;5.874;2022-10-16T02:36:30;15.60;99.90
11532;DHT22;5822;51.000;5.874;2022-10-16T02:38:57;15.60;99.90
11532;DHT22;5822;51.000;5.874;2022-10-16T02:41:25;15.60;99.90
11532;DHT22;5822;51.000;5.874;2022-10-16T02:43:51;15.60;99.90
11532;DHT22;5822;51.000;5.874;2022-10-16T02:46:17;15.60;99.90
11532;DHT22;5822;51.000;5.874;2022-10-16T02:48:43;15.50;99.90
11532;DHT22;5822;51.000;5.874;2022-10-16T02:51:09;15.60;99.90
11532;DHT22;5822;51.000;5.874;2022-10-16T02:53:34;15.60;99.90
11532;DHT22;5822;51.000;5.874;2022-10-16T02:56:00;15.50;99.90
11532;DHT22;5822;51.000;5.874;2022-10-16T02:58:26;15.60;99.90
11532;DHT22;5822;51.000;5.874;2022-10-16T03:00:52;15.60;99.90
11532;DHT22;5822;51.000;5.874;2022-10-16T03:03:17;15.50;99.90
11532;DHT22;5822;51.000;5.874;2022-10-16T03:05:44;15.50;99.90
11532;DHT22;5822;51.000;5.874;2022-10-16T03:08:11;15.60;99.90
11532;DHT22;5822;51.000;5.874;2022-10-16T03:10:37;15.60;99.90
11532;DHT22;5822;51.000;5.874;2022-10-16T03:13:03;15.60;99.90
11532;DHT22;5822;51.000;5.874;2022-10-16T03:15:28;15.60;99.90
11532;DHT22;5822;51.000;5.874;2022-10-16T03:17:56;15.60;99.90
11532;DHT22;5822;51.000;5.874;2022-10-16T03:20:22;15.60;99.90
11532;DHT22;5822;51.000;5.874;2022-10-16T03:22:48;15.60;99.90
11532;DHT22;5822;51.000;5.874;2022-10-16T03:25:13;15.60;99.90
11532;DHT22;5822;51.000;5.874;2022-10-16T03:27:39;15.50;99.90
11532;DHT22;5822;51.000;5.874;2022-10-16T03:30:05;15.60;99.90
11532;DHT22;5822;51.000;5.874;2022-10-16T03:32:31;15.50;99.90
11532;DHT22;5822;51.000;5.874;2022-10-16T03:34:56;15.50;99.90
11532;DHT22;5822;51.000;5.874;2022-10-16T03:37:22;15.50;99.90
11532;DHT22;5822;51.000;5.874;2022-10-16T03:39:48;15.50;99.90
11532;DHT22;5822;51.000;5.874;2022-10-16T03:42:13;15.50;99.90
11532;DHT22;5822;51.000;5.874;2022-10-16T03:44:39;15.40;99.90
11532;DHT22;5822;51.000;5.874;2022-10-16T03:47:04;15.40;99.90
11532;DHT22;5822;51.000;5.874;2022-10-16T03:49:30;15.40;99.90
11532;DHT22;5822;51.000;5.874;2022-10-16T03:51:55;15.40;99.90
11532;DHT22;5822;51.000;5.874;2022-10-16T03:54:21;15.40;99.90
11532;DHT22;5822;51.000;5.874;2022-10-16T03:56:47;15.40;99.90
11532;DHT22;5822;51.000;5.874;2022-10-16T03:59:13;15.40;99.90
11532;DHT22;5822;51.000;5.874;2022-10-16T04:01:39;15.40;99.90
11532;DHT22;5822;51.000;5.874;2022-10-16T04:04:04;15.30;99.90
11532;DHT22;5822;51.000;5.874;2022-10-16T04:06:30;15.30;99.90
11532;DHT22;5822;51.000;5.874;2022-10-16T04:08:56;15.30;99.90
11532;DHT22;5822;51.000;5.874;2022-10-16T04:11:22;15.30;99.90
11532;DHT22;5822;51.000;5.874;2022-10-16T04:13:47;15.40;99.90
11532;DHT22;5822;51.000;5.874;2022-10-16T04:16:13;15.40;99.90
11532;DHT22;5822;51.000;5.874;2022-10-16T04:18:39;15.40;99.90
11532;DHT22;5822;51.000;5.874;2022-10-16T04:21:06;15.40;99.90
11532;DHT22;5822;51.000;5.874;2022-10-16T04:23:32;15.40;99.90
11532;DHT22;5822;51.000;5.874;2022-10-16T04:25:58;15.40;99.90
11532;DHT22;5822;51.000;5.874;2022-10-16T04:28:24;15.40;99.90
11532;DHT22;5822;51.000;5.874;2022-10-16T04:30:49;15.40;99.90
11532;DHT22;5822;51.000;5.874;2022-10-16T04:33:15;15.40;99.90
11532;DHT22;5822;51.000;5.874;2022-10-16T04:35:41;15.40;99.90
11532;DHT22;5822;51.000;5.874;2022-10-16T04:38:07;15.40;99.90
11532;DHT22;5822;51.000;5.874;2022-10-16T04:40:32;15.40;99.90
11532;DHT22;5822;51.000;5.874;2022-10-16T04:42:59;15.40;99.90
11532;DHT22;5822;51.000;5.874;2022-10-16T04:45:25;15.40;99.90
11532;DHT22;5822;51.000;5.874;2022-10-16T04:47:50;15.40;99.90
11532;DHT22;5822;51.000;5.874;2022-10-16T04:50:16;15.40;99.90
11532;DHT22;5822;51.000;5.874;2022-10-16T04:52:41;15.40;99.90
11532;DHT22;5822;51.000;5.874;2022-10-16T04:55:07;15.40;99.90
11532;DHT22;5822;51.000;5.874;2022-10-16T04:57:33;15.40;99.90
11532;DHT22;5822;51.000;5.874;2022-10-16T04:59:59;15.40;99.90
11532;DHT22;5822;51.000;5.874;2022-10-16T05:02:25;15.40;99.90
11532;DHT22;5822;51.000;5.874;2022-10-16T05:04:51;15.40;99.90
11532;DHT22;5822;51.000;5.874;2022-10-16T05:07:16;15.40;99.90
11532;DHT22;5822;51.000;5.874;2022-10-16T05:09:42;15.40;99.90
11532;DHT22;5822;51.000;5.874;2022-10-16T05:12:08;15.40;99.90
11532;DHT22;5822;51.000;5.874;2022-10-16T05:14:33;15.40;99.90
11532;DHT22;5822;51.000;5.874;2022-10-16T05:17:00;15.40;99.90
11532;DHT22;5822;51.000;5.874;2022-10-16T05:19:25;15.40;99.90
11532;DHT22;5822;51.000;5.874;2022-10-16T05:21:51;15.40;99.90
11532;DHT22;5822;51.000;5.874;2022-10-16T05:24:17;15.40;99.90
11532;DHT22;5822;51.000;5.874;2022-10-16T05:26:42;15.40;99.90
11532;DHT22;5822;51.000;5.874;2022-10-16T05:29:09;15.40;99.90
11532;DHT22;5822;51.000;5.874;2022-10-16T05:31:34;15.40;99.90
11532;DHT22;5822;51.000;5.874;2022-10-16T05:34:00;15.30;99.90
11532;DHT22;5822;51.000;5.874;2022-10-16T05:36:26;15.30;99.90
11532;DHT22;5822;51.000;5.874;2022-10-16T05:38:52;15.30;99.90
11532;DHT22;5822;51.000;5.874;2022-10-16T05:41:18;15.30;99.90
11532;DHT22;5822;51.000;5.874;2022-10-16T05:43:47;15.30;99.90
11532;DHT22;5822;51.000;5.874;2022-10-16T05:46:13;15.30;99.90
11532;DHT22;5822;51.000;5.874;2022-10-16T05:48:39;15.20;99.90
11532;DHT22;5822;51.000;5.874;2022-10-16T05:51:10;15.20;99.90
11532;DHT22;5822;51.000;5.874;2022-10-16T05:53:37;15.30;99.90
11532;DHT22;5822;51.000;5.874;2022-10-16T05:56:04;15.30;99.90
11532;DHT22;5822;51.000;5.874;2022-10-16T05:58:32;15.40;99.90
11532;DHT22;5822;51.000;5.874;2022-10-16T06:01:00;15.40;99.90
11532;DHT22;5822;51.000;5.874;2022-10-16T06:03:26;15.40;99.90
11532;DHT22;5822;51.000;5.874;2022-10-16T06:05:52;15.40;99.90
11532;DHT22;5822;51.000;5.874;2022-10-16T06:08:18;15.30;99.90
11532;DHT22;5822;51.000;5.874;2022-10-16T06:10:45;15.40;99.90
11532;DHT22;5822;51.000;5.874;2022-10-16T06:13:12;15.30;99.90
11532;DHT22;5822;51.000;5.874;2022-10-16T06:15:41;15.40;99.90
11532;DHT22;5822;51.000;5.874;2022-10-16T06:18:08;15.40;99.90
11532;DHT22;5822;51.000;5.874;2022-10-16T06:20:34;15.30;99.90
11532;DHT22;5822;51.000;5.874;2022-10-16T06:23:00;15.30;99.90
11532;DHT22;5822;51.000;5.874;2022-10-16T06:25:25;15.30;99.90
11532;DHT22;5822;51.000;5.874;2022-10-16T06:27:51;15.30;99.90
11532;DHT22;5822;51.000;5.874;2022-10-16T06:30:16;15.30;99.90
11532;DHT22;5822;51.000;5.874;2022-10-16T06:32:42;15.30;99.90
11532;DHT22;5822;51.000;5.874;2022-10-16T06:35:08;15.40;99.90
11532;DHT22;5822;51.000;5.874;2022-10-16T06:37:33;15.40;99.90
11532;DHT22;5822;51.000;5.874;2022-10-16T06:39:59;15.30;99.90
11532;DHT22;5822;51.000;5.874;2022-10-16T06:42:25;15.30;99.90
11532;DHT22;5822;51.000;5.874;2022-10-16T06:44:51;15.40;99.90
11532;DHT22;5822;51.000;5.874;2022-10-16T06:47:16;15.40;99.90
11532;DHT22;5822;51.000;5.874;2022-10-16T06:49:42;15.30;99.90
11532;DHT22;5822;51.000;5.874;2022-10-16T06:52:07;15.30;99.90
11532;DHT22;5822;51.000;5.874;2022-10-16T06:54:33;15.30;99.90
11532;DHT22;5822;51.000;5.874;2022-10-16T06:56:59;15.30;99.90
11532;DHT22;5822;51.000;5.874;2022-10-16T06:59:25;15.30;99.90
11532;DHT22;5822;51.000;5.874;2022-10-16T07:01:50;15.40;99.90
11532;DHT22;5822;51.000;5.874;2022-10-16T07:04:16;15.30;99.90
11532;DHT22;5822;51.000;5.874;2022-10-16T07:06:42;15.40;99.90
11532;DHT22;5822;51.000;5.874;2022-10-16T07:09:09;15.40;99.90
11532;DHT22;5822;51.000;5.874;2022-10-16T07:11:37;15.40;99.90
11532;DHT22;5822;51.000;5.874;2022-10-16T07:14:03;15.40;99.90
11532;DHT22;5822;51.000;5.874;2022-10-16T07:16:32;15.40;99.90
11532;DHT22;5822;51.000;5.874;2022-10-16T07:18:59;15.40;99.90
11532;DHT22;5822;51.000;5.874;2022-10-16T07:21:33;15.40;99.90
11532;DHT22;5822;51.000;5.874;2022-10-16T07:24:04;15.40;99.90
11532;DHT22;5822;51.000;5.874;2022-10-16T07:26:33;15.50;99.90
11532;DHT22;5822;51.000;5.874;2022-10-16T07:28:59;15.50;99.90
11532;DHT22;5822;51.000;5.874;2022-10-16T07:31:26;15.50;99.90
11532;DHT22;5822;51.000;5.874;2022-10-16T07:33:53;15.50;99.90
11532;DHT22;5822;51.000;5.874;2022-10-16T07:36:19;15.50;99.90
11532;DHT22;5822;51.000;5.874;2022-10-16T07:38:46;15.50;99.90
11532;DHT22;5822;51.000;5.874;2022-10-16T07:41:14;15.50;99.90
11532;DHT22;5822;51.000;5.874;2022-10-16T07:43:48;15.60;99.90
11532;DHT22;5822;51.000;5.874;2022-10-16T07:46:15;15.60;99.90
11532;DHT22;5822;51.000;5.874;2022-10-16T07:48:41;15.70;99.90
11532;DHT22;5822;51.000;5.874;2022-10-16T07:51:11;15.70;99.90
11532;DHT22;5822;51.000;5.874;2022-10-16T07:53:37;15.70;99.90
11532;DHT22;5822;51.000;5.874;2022-10-16T07:56:05;15.70;99.90
11532;DHT22;5822;51.000;5.874;2022-10-16T07:58:31;15.70;99.90
11532;DHT22;5822;51.000;5.874;2022-10-16T08:00:58;15.80;99.90
11532;DHT22;5822;51.000;5.874;2022-10-16T08:03:24;15.80;99.90
11532;DHT22;5822;51.000;5.874;2022-10-16T08:05:50;15.80;99.90
11532;DHT22;5822;51.000;5.874;2022-10-16T08:08:17;15.80;99.90
11532;DHT22;5822;51.000;5.874;2022-10-16T08:10:44;15.80;99.90
11532;DHT22;5822;51.000;5.874;2022-10-16T08:13:09;15.90;99.90
11532;DHT22;5822;51.000;5.874;2022-10-16T08:15:35;15.90;99.90
11532;DHT22;5822;51.000;5.874;2022-10-16T08:18:03;16.00;99.90
11532;DHT22;5822;51.000;5.874;2022-10-16T08:20:30;16.00;99.90
11532;DHT22;5822;51.000;5.874;2022-10-16T08:22:56;16.00;99.90
11532;DHT22;5822;51.000;5.874;2022-10-16T08:25:23;16.00;99.90
11532;DHT22;5822;51.000;5.874;2022-10-16T08:27:48;16.00;99.90
11532;DHT22;5822;51.000;5.874;2022-10-16T08:30:14;16.10;99.90
11532;DHT22;5822;51.000;5.874;2022-10-16T08:32:40;16.10;99.90
11532;DHT22;5822;51.000;5.874;2022-10-16T08:35:08;16.10;99.90
11532;DHT22;5822;51.000;5.874;2022-10-16T08:37:35;16.10;99.90
11532;DHT22;5822;51.000;5.874;2022-10-16T08:40:01;16.10;99.90
11532;DHT22;5822;51.000;5.874;2022-10-16T08:42:51;16.10;99.90
11532;DHT22;5822;51.000;5.874;2022-10-16T08:45:37;16.20;99.90
11532;DHT22;5822;51.000;5.874;2022-10-16T08:48:24;16.20;99.90
11532;DHT22;5822;51.000;5.874;2022-10-16T08:50:53;16.20;99.90
11532;DHT22;5822;51.000;5.874;2022-10-16T08:56:20;16.30;99.90
11532;DHT22;5822;51.000;5.874;2022-10-16T08:58:46;16.20;99.90
11532;DHT22;5822;51.000;5.874;2022-10-16T09:01:15;16.30;99.90
11532;DHT22;5822;51.000;5.874;2022-10-16T09:06:17;16.30;99.90
11532;DHT22;5822;51.000;5.874;2022-10-16T09:22:44;16.40;99.90
11532;DHT22;5822;51.000;5.874;2022-10-16T09:25:12;16.40;99.90
11532;DHT22;5822;51.000;5.874;2022-10-16T09:27:39;16.40;99.90
11532;DHT22;5822;51.000;5.874;2022-10-16T09:30:18;16.40;99.90
11532;DHT22;5822;51.000;5.874;2022-10-16T09:32:46;16.40;99.90
11532;DHT22;5822;51.000;5.874;2022-10-16T09:35:21;16.40;99.90
11532;DHT22;5822;51.000;5.874;2022-10-16T09:37:50;16.50;99.90
11532;DHT22;5822;51.000;5.874;2022-10-16T09:48:44;16.50;99.90
11532;DHT22;5822;51.000;5.874;2022-10-16T09:51:35;16.60;99.90
11532;DHT22;5822;51.000;5.874;2022-10-16T09:54:18;16.60;99.90
11532;DHT22;5822;51.000;5.874;2022-10-16T09:56:45;16.60;99.90
11532;DHT22;5822;51.000;5.874;2022-10-16T09:59:17;16.60;99.90
11532;DHT22;5822;51.000;5.874;2022-10-16T10:04:10;16.70;99.90
11532;DHT22;5822;51.000;5.874;2022-10-16T10:06:40;16.70;99.90
11532;DHT22;5822;51.000;5.874;2022-10-16T10:11:56;16.70;99.90
11532;DHT22;5822;51.000;5.874;2022-10-16T10:14:45;16.70;99.90
11532;DHT22;5822;51.000;5.874;2022-10-16T10:20:43;16.80;99.90
11532;DHT22;5822;51.000;5.874;2022-10-16T10:22:45;16.80;99.90
11532;DHT22;5822;51.000;5.874;2022-10-16T10:44:35;16.80;99.90
11532;DHT22;5822;51.000;5.874;2022-10-16T10:52:34;16.90;99.90
11532;DHT22;5822;51.000;5.874;2022-10-16T10:58:20;17.00;99.90
11532;DHT22;5822;51.000;5.874;2022-10-16T11:09:25;17.10;99.90
11532;DHT22;5822;51.000;5.874;2022-10-16T11:12:11;17.20;99.90
11532;DHT22;5822;51.000;5.874;2022-10-16T11:17:54;17.20;99.90
11532;DHT22;5822;51.000;5.874;2022-10-16T11:20:24;17.20;99.90
11532;DHT22;5822;51.000;5.874;2022-10-16T11:22:56;17.20;99.90
11532;DHT22;5822;51.000;5.874;2022-10-16T11:25:31;17.10;99.90
11532;DHT22;5822;51.000;5.874;2022-10-16T11:27:59;17.10;99.90
11532;DHT22;5822;51.000;5.874;2022-10-16T11:30:29;17.10;99.90
11532;DHT22;5822;51.000;5.874;2022-10-16T11:35:37;17.10;99.90
11532;DHT22;5822;51.000;5.874;2022-10-16T11:38:09;17.10;99.90
11532;DHT22;5822;51.000;5.874;2022-10-16T11:40:39;17.10;99.90
11532;DHT22;5822;51.000;5.874;2022-10-16T11:43:12;17.10;99.90
11532;DHT22;5822;51.000;5.874;2022-10-16T11:45:46;17.10;99.90
11532;DHT22;5822;51.000;5.874;2022-10-16T11:48:17;17.10;99.90
11532;DHT22;5822;51.000;5.874;2022-10-16T11:50:52;17.10;99.90
11532;DHT22;5822;51.000;5.874;2022-10-16T11:56:12;17.20;99.90
11532;DHT22;5822;51.000;5.874;2022-10-16T12:01:33;17.20;99.90
11532;DHT22;5822;51.000;5.874;2022-10-16T12:06:46;17.30;99.90
11532;DHT22;5822;51.000;5.874;2022-10-16T12:09:25;17.30;99.90
11532;DHT22;5822;51.000;5.874;2022-10-16T12:11:52;17.30;99.90
11532;DHT22;5822;51.000;5.874;2022-10-16T12:14:34;17.30;99.90
11532;DHT22;5822;51.000;5.874;2022-10-16T12:17:22;17.40;99.90
11532;DHT22;5822;51.000;5.874;2022-10-16T12:22:36;17.40;99.90
11532;DHT22;5822;51.000;5.874;2022-10-16T12:25:17;17.40;99.90
11532;DHT22;5822;51.000;5.874;2022-10-16T12:27:44;17.40;99.90
11532;DHT22;5822;51.000;5.874;2022-10-16T12:30:23;17.40;99.90
11532;DHT22;5822;51.000;5.874;2022-10-16T12:33:15;17.50;99.90
11532;DHT22;5822;51.000;5.874;2022-10-16T12:35:45;17.50;99.90
11532;DHT22;5822;51.000;5.874;2022-10-16T12:41:06;17.50;99.90
11532;DHT22;5822;51.000;5.874;2022-10-16T12:46:22;17.60;99.90
11532;DHT22;5822;51.000;5.874;2022-10-16T12:48:48;17.60;99.90
11532;DHT22;5822;51.000;5.874;2022-10-16T12:51:25;17.70;99.90
11532;DHT22;5822;51.000;5.874;2022-10-16T13:10:44;17.70;99.90
11532;DHT22;5822;51.000;5.874;2022-10-16T13:13:36;17.80;99.90
11532;DHT22;5822;51.000;5.874;2022-10-16T13:24:27;17.80;99.90
11532;DHT22;5822;51.000;5.874;2022-10-16T13:27:07;17.80;99.90
11532;DHT22;5822;51.000;5.874;2022-10-16T13:29:38;17.70;99.90
11532;DHT22;5822;51.000;5.874;2022-10-16T13:32:11;17.70;99.90
11532;DHT22;5822;51.000;5.874;2022-10-16T13:34:45;17.70;99.90
11532;DHT22;5822;51.000;5.874;2022-10-16T13:37:19;17.70;99.90
11532;DHT22;5822;51.000;5.874;2022-10-16T13:39:45;17.70;99.90
11532;DHT22;5822;51.000;5.874;2022-10-16T13:42:24;17.70;99.90
11532;DHT22;5822;51.000;5.874;2022-10-16T13:44:52;17.70;99.90
11532;DHT22;5822;51.000;5.874;2022-10-16T13:47:24;17.70;99.90
11532;DHT22;5822;51.000;5.874;2022-10-16T13:52:30;17.70;99.90
11532;DHT22;5822;51.000;5.874;2022-10-16T13:54:56;17.70;99.90
11532;DHT22;5822;51.000;5.874;2022-10-16T13:57:23;17.70;99.90
11532;DHT22;5822;51.000;5.874;2022-10-16T13:59:49;17.70;99.90
11532;DHT22;5822;51.000;5.874;2022-10-16T14:02:22;17.70;99.90
11532;DHT22;5822;51.000;5.874;2022-10-16T14:04:50;17.70;99.90
11532;DHT22;5822;51.000;5.874;2022-10-16T14:07:28;17.70;99.90
11532;DHT22;5822;51.000;5.874;2022-10-16T14:09:54;17.70;99.90
11532;DHT22;5822;51.000;5.874;2022-10-16T14:12:22;17.70;99.90
11532;DHT22;5822;51.000;5.874;2022-10-16T14:14:51;17.70;99.90
11532;DHT22;5822;51.000;5.874;2022-10-16T14:17:32;17.70;99.90
11532;DHT22;5822;51.000;5.874;2022-10-16T14:20:03;17.70;99.90
11532;DHT22;5822;51.000;5.874;2022-10-16T14:24:55;17.70;99.90
11532;DHT22;5822;51.000;5.874;2022-10-16T14:27:32;17.70;99.90
11532;DHT22;5822;51.000;5.874;2022-10-16T14:30:16;17.70;99.90
11532;DHT22;5822;51.000;5.874;2022-10-16T14:32:54;17.60;99.90
11532;DHT22;5822;51.000;5.874;2022-10-16T14:35:25;17.60;99.90
11532;DHT22;5822;51.000;5.874;2022-10-16T14:37:52;17.60;99.90
11532;DHT22;5822;51.000;5.874;2022-10-16T14:40:18;17.60;99.90
11532;DHT22;5822;51.000;5.874;2022-10-16T14:42:46;17.60;99.90
11532;DHT22;5822;51.000;5.874;2022-10-16T14:45:12;17.60;99.90
11532;DHT22;5822;51.000;5.874;2022-10-16T14:47:52;17.60;99.90
11532;DHT22;5822;51.000;5.874;2022-10-16T14:50:18;17.60;99.90
11532;DHT22;5822;51.000;5.874;2022-10-16T14:52:44;17.60;99.90
11532;DHT22;5822;51.000;5.874;2022-10-16T14:55:10;17.60;99.90
11532;DHT22;5822;51.000;5.874;2022-10-16T14:57:37;17.60;99.90
11532;DHT22;5822;51.000;5.874;2022-10-16T15:00:16;17.60;99.90
11532;DHT22;5822;51.000;5.874;2022-10-16T15:02:42;17.60;99.90
11532;DHT22;5822;51.000;5.874;2022-10-16T15:05:17;17.60;99.90
11532;DHT22;5822;51.000;5.874;2022-10-16T15:07:44;17.60;99.90
11532;DHT22;5822;51.000;5.874;2022-10-16T15:10:11;17.60;99.90
11532;DHT22;5822;51.000;5.874;2022-10-16T15:12:37;17.60;99.90
11532;DHT22;5822;51.000;5.874;2022-10-16T15:15:34;17.60;99.90
11532;DHT22;5822;51.000;5.874;2022-10-16T15:18:01;17.60;99.90
11532;DHT22;5822;51.000;5.874;2022-10-16T15:20:30;17.60;99.90
11532;DHT22;5822;51.000;5.874;2022-10-16T15:22:59;17.60;99.90
11532;DHT22;5822;51.000;5.874;2022-10-16T15:25:30;17.60;99.90
11532;DHT22;5822;51.000;5.874;2022-10-16T15:27:58;17.60;99.90
11532;DHT22;5822;51.000;5.874;2022-10-16T15:30:24;17.60;99.90
11532;DHT22;5822;51.000;5.874;2022-10-16T15:32:50;17.60;99.90
11532;DHT22;5822;51.000;5.874;2022-10-16T15:35:15;17.60;99.90
11532;DHT22;5822;51.000;5.874;2022-10-16T15:37:41;17.60;99.90
11532;DHT22;5822;51.000;5.874;2022-10-16T15:40:08;17.60;99.90
11532;DHT22;5822;51.000;5.874;2022-10-16T15:42:34;17.60;99.90
11532;DHT22;5822;51.000;5.874;2022-10-16T15:45:00;17.60;99.90
11532;DHT22;5822;51.000;5.874;2022-10-16T15:47:26;17.60;99.90
11532;DHT22;5822;51.000;5.874;2022-10-16T15:49:51;17.60;99.90
11532;DHT22;5822;51.000;5.874;2022-10-16T15:52:17;17.60;99.90
11532;DHT22;5822;51.000;5.874;2022-10-16T15:54:43;17.60;99.90
11532;DHT22;5822;51.000;5.874;2022-10-16T15:57:09;17.60;99.90
11532;DHT22;5822;51.000;5.874;2022-10-16T15:59:34;17.60;99.90
11532;DHT22;5822;51.000;5.874;2022-10-16T16:02:00;17.60;99.90
11532;DHT22;5822;51.000;5.874;2022-10-16T16:04:26;17.60;99.90
11532;DHT22;5822;51.000;5.874;2022-10-16T16:06:51;17.60;99.90
11532;DHT22;5822;51.000;5.874;2022-10-16T16:09:17;17.50;99.90
11532;DHT22;5822;51.000;5.874;2022-10-16T16:11:42;17.50;99.90
11532;DHT22;5822;51.000;5.874;2022-10-16T16:14:12;17.50;99.90
11532;DHT22;5822;51.000;5.874;2022-10-16T16:16:38;17.50;99.90
11532;DHT22;5822;51.000;5.874;2022-10-16T16:19:05;17.50;99.90
11532;DHT22;5822;51.000;5.874;2022-10-16T16:21:31;17.50;99.90
11532;DHT22;5822;51.000;5.874;2022-10-16T16:23:57;17.50;99.90
11532;DHT22;5822;51.000;5.874;2022-10-16T16:26:31;17.50;99.90
11532;DHT22;5822;51.000;5.874;2022-10-16T16:29:01;17.50;99.90
11532;DHT22;5822;51.000;5.874;2022-10-16T16:31:29;17.50;99.90
11532;DHT22;5822;51.000;5.874;2022-10-16T16:33:55;17.50;99.90
11532;DHT22;5822;51.000;5.874;2022-10-16T16:36:22;17.50;99.90
11532;DHT22;5822;51.000;5.874;2022-10-16T16:38:48;17.50;99.90
11532;DHT22;5822;51.000;5.874;2022-10-16T16:41:16;17.50;99.90
11532;DHT22;5822;51.000;5.874;2022-10-16T16:43:42;17.50;99.90
11532;DHT22;5822;51.000;5.874;2022-10-16T16:46:08;17.50;99.90
11532;DHT22;5822;51.000;5.874;2022-10-16T16:48:34;17.50;99.90
11532;DHT22;5822;51.000;5.874;2022-10-16T16:51:07;17.50;99.90
11532;DHT22;5822;51.000;5.874;2022-10-16T16:53:34;17.50;99.90
11532;DHT22;5822;51.000;5.874;2022-10-16T16:56:05;17.40;99.90
11532;DHT22;5822;51.000;5.874;2022-10-16T16:58:31;17.50;99.90
11532;DHT22;5822;51.000;5.874;2022-10-16T17:00:57;17.50;99.90
11532;DHT22;5822;51.000;5.874;2022-10-16T17:03:27;17.50;99.90
11532;DHT22;5822;51.000;5.874;2022-10-16T17:06:00;17.50;99.90
11532;DHT22;5822;51.000;5.874;2022-10-16T17:08:26;17.50;99.90
11532;DHT22;5822;51.000;5.874;2022-10-16T17:10:52;17.50;99.90
11532;DHT22;5822;51.000;5.874;2022-10-16T17:13:21;17.50;99.90
11532;DHT22;5822;51.000;5.874;2022-10-16T17:15:49;17.50;99.90
11532;DHT22;5822;51.000;5.874;2022-10-16T17:18:15;17.50;99.90
11532;DHT22;5822;51.000;5.874;2022-10-16T17:20:41;17.50;99.90
11532;DHT22;5822;51.000;5.874;2022-10-16T17:23:07;17.50;99.90
11532;DHT22;5822;51.000;5.874;2022-10-16T17:25:35;17.50;99.90
11532;DHT22;5822;51.000;5.874;2022-10-16T17:28:01;17.50;99.90
11532;DHT22;5822;51.000;5.874;2022-10-16T17:30:27;17.50;99.90
11532;DHT22;5822;51.000;5.874;2022-10-16T17:32:52;17.50;99.90
11532;DHT22;5822;51.000;5.874;2022-10-16T17:35:18;17.40;99.90
11532;DHT22;5822;51.000;5.874;2022-10-16T17:37:44;17.50;99.90
11532;DHT22;5822;51.000;5.874;2022-10-16T17:40:10;17.40;99.90
11532;DHT22;5822;51.000;5.874;2022-10-16T17:42:36;17.40;99.90
11532;DHT22;5822;51.000;5.874;2022-10-16T17:45:01;17.40;99.90
11532;DHT22;5822;51.000;5.874;2022-10-16T17:47:27;17.40;99.90
11532;DHT22;5822;51.000;5.874;2022-10-16T17:49:53;17.40;99.90
11532;DHT22;5822;51.000;5.874;2022-10-16T17:52:19;17.40;99.90
11532;DHT22;5822;51.000;5.874;2022-10-16T17:54:45;17.40;99.90
11532;DHT22;5822;51.000;5.874;2022-10-16T17:57:10;17.40;99.90
11532;DHT22;5822;51.000;5.874;2022-10-16T17:59:36;17.40;99.90
11532;DHT22;5822;51.000;5.874;2022-10-16T18:02:02;17.40;99.90
11532;DHT22;5822;51.000;5.874;2022-10-16T18:04:28;17.40;99.90
11532;DHT22;5822;51.000;5.874;2022-10-16T18:06:53;17.40;99.90
11532;DHT22;5822;51.000;5.874;2022-10-16T18:09:24;17.40;99.90
11532;DHT22;5822;51.000;5.874;2022-10-16T18:11:50;17.40;99.90